createdAt,value
2018-12-15T00:00:32.398Z,71.34
2018-12-15T00:05:27.666Z,72.65
2018-12-15T00:10:24.167Z,71.94
2018-12-15T00:20:40.753Z,70.67
2018-12-15T00:25:35.416Z,71.40
2018-12-15T00:35:33.823Z,72.76
2018-12-15T00:40:34.292Z,71.87
2018-12-15T00:50:33.790Z,72.47
2018-12-15T01:00:34.383Z,71.53
2018-12-15T01:05:33.887Z,70.73
2018-12-15T01:10:34.787Z,72.11
2018-12-15T01:20:39.455Z,70.36
2018-12-15T01:30:39.303Z,69.38
2018-12-15T01:35:33.979Z,69.93
2018-12-15T01:40:33.606Z,70.31
2018-12-15T01:45:31.629Z,69.92
2018-12-15T01:50:27.569Z,70.46
2018-12-15T01:55:34.021Z,71.46
2018-12-15T02:00:35.327Z,70.01
2018-12-15T02:05:30.680Z,70.64
2018-12-15T02:10:25.454Z,69.81
2018-12-15T02:15:31.473Z,68.85
2018-12-15T02:20:26.289Z,68.66
2018-12-15T02:25:20.923Z,71.04
2018-12-15T02:30:15.577Z,69.86
2018-12-15T02:35:10.202Z,69.75
2018-12-15T02:40:06.824Z,69.37
2018-12-15T02:45:01.494Z,69.38
2018-12-15T02:49:56.091Z,68.21
2018-12-15T02:54:50.704Z,68.31
2018-12-15T02:59:45.443Z,68.79
2018-12-15T03:04:40.057Z,69.09
2018-12-15T03:09:34.668Z,69.12
2018-12-15T03:14:29.278Z,69.62
2018-12-15T03:19:23.869Z,69.09
2018-12-15T03:24:18.454Z,69.15
2018-12-15T03:29:13.083Z,68.67
2018-12-15T03:34:07.663Z,69.53
2018-12-15T03:39:02.299Z,68.51
2018-12-15T03:43:56.927Z,69.15
2018-12-15T03:48:51.560Z,67.90
2018-12-15T03:53:46.199Z,69.41
2018-12-15T03:58:40.835Z,68.05
2018-12-15T04:03:35.434Z,70.59
2018-12-15T04:08:30.100Z,68.96
2018-12-15T04:13:24.716Z,68.14
2018-12-15T04:18:19.330Z,69.87
2018-12-15T04:23:14.167Z,69.82
2018-12-15T04:28:08.793Z,69.56
2018-12-15T04:33:31.438Z,68.01
2018-12-15T04:48:38.853Z,69.88
2018-12-15T04:53:34.432Z,67.75
2018-12-15T05:03:34.005Z,70.23
2018-12-15T05:13:39.860Z,68.87
2018-12-15T05:23:34.573Z,69.23
2018-12-15T05:28:34.274Z,69.53
2018-12-15T05:38:33.604Z,68.66
2018-12-15T05:48:34.212Z,69.00
2018-12-15T05:53:33.908Z,68.02
2018-12-15T06:14:31.233Z,69.66
2018-12-15T06:19:33.507Z,69.53
2018-12-15T06:29:34.178Z,69.97
2018-12-15T06:50:17.523Z,70.80
2018-12-15T06:55:12.197Z,70.50
2018-12-15T07:00:07.695Z,72.44
2018-12-15T07:05:02.284Z,70.41
2018-12-15T07:09:56.938Z,70.34
2018-12-15T07:14:51.571Z,70.96
2018-12-15T07:19:46.372Z,71.09
2018-12-15T07:24:41.975Z,71.30
2018-12-15T07:29:38.021Z,69.60
2018-12-15T07:34:32.725Z,71.34
2018-12-15T07:39:28.600Z,70.09
2018-12-15T07:44:23.824Z,71.84
2018-12-15T07:49:18.550Z,71.02
2018-12-15T07:54:13.320Z,70.50
2018-12-15T07:59:10.137Z,70.28
2018-12-15T08:04:04.964Z,70.94
2018-12-15T08:08:59.645Z,70.30
2018-12-15T08:13:58.348Z,70.13
2018-12-15T08:18:58.071Z,71.21
2018-12-15T08:23:49.612Z,71.65
2018-12-15T08:28:44.223Z,71.13
2018-12-15T08:33:38.861Z,70.92
2018-12-15T08:38:33.482Z,70.68
2018-12-15T08:43:28.150Z,70.37
2018-12-15T09:04:30.473Z,70.37
2018-12-15T09:09:33.892Z,69.60
2018-12-15T09:30:33.871Z,68.40
2018-12-15T09:45:34.471Z,67.98
2018-12-15T09:50:35.093Z,68.90
2018-12-15T10:00:34.444Z,67.83
2018-12-15T10:32:04.376Z,65.29
2018-12-15T10:36:58.969Z,66.02
2018-12-15T10:41:53.644Z,66.26
2018-12-15T10:46:48.408Z,67.06
2018-12-15T10:51:43.192Z,64.72
2018-12-15T10:56:37.929Z,64.34
2018-12-15T11:01:32.863Z,66.22
2018-12-15T11:06:27.479Z,64.95
2018-12-15T11:11:22.165Z,63.65
2018-12-15T11:16:17.041Z,64.99
2018-12-15T11:21:11.687Z,64.22
2018-12-15T11:26:06.369Z,65.52
2018-12-15T11:31:01.229Z,63.64
2018-12-15T11:35:56.048Z,63.79
2018-12-15T11:40:50.664Z,64.46
2018-12-15T11:45:45.364Z,65.41
2018-12-15T11:50:40.180Z,63.41
2018-12-15T11:55:34.925Z,64.18
2018-12-15T12:00:29.604Z,64.95
2018-12-15T12:05:24.294Z,63.81
2018-12-15T12:10:19.005Z,63.81
2018-12-15T12:15:13.636Z,63.38
2018-12-15T12:20:09.480Z,63.89
2018-12-15T12:25:04.375Z,65.30
2018-12-15T12:29:59.028Z,65.13
2018-12-15T12:34:53.777Z,65.82
2018-12-15T12:39:48.403Z,66.14
2018-12-15T12:44:43.538Z,65.71
2018-12-15T12:49:38.164Z,64.68
2018-12-15T12:54:32.815Z,64.20
2018-12-15T12:59:27.517Z,66.29
2018-12-15T13:04:22.191Z,63.91
2018-12-15T13:09:16.820Z,64.58
2018-12-15T13:14:11.586Z,66.03
2018-12-15T13:19:06.319Z,64.28
2018-12-15T13:24:00.991Z,65.07
2018-12-15T13:28:55.603Z,65.13
2018-12-15T13:33:50.237Z,63.83
2018-12-15T13:38:45.160Z,63.85
2018-12-15T13:43:39.930Z,63.86
2018-12-15T13:48:34.617Z,67.01
2018-12-15T13:53:29.323Z,64.92
2018-12-15T13:58:23.985Z,64.54
2018-12-15T14:03:18.650Z,66.07
2018-12-15T14:08:13.261Z,66.04
2018-12-15T14:13:08.047Z,66.79
2018-12-15T14:18:02.837Z,69.84
2018-12-15T14:22:57.611Z,69.39
2018-12-15T14:27:52.236Z,67.90
2018-12-15T14:32:49.940Z,71.32
2018-12-15T14:37:47.085Z,71.21
2018-12-15T14:42:41.710Z,70.99
2018-12-15T14:47:50.455Z,69.11
2018-12-15T14:52:45.164Z,68.22
2018-12-15T14:57:39.918Z,69.23
2018-12-15T15:02:34.573Z,68.89
2018-12-15T15:07:29.257Z,70.62
2018-12-15T15:12:23.983Z,70.73
2018-12-15T15:17:18.646Z,71.83
2018-12-15T15:22:17.291Z,71.79
2018-12-15T15:27:13.473Z,71.14
2018-12-15T15:32:10.124Z,72.92
2018-12-15T15:37:06.439Z,71.76
2018-12-15T15:42:01.149Z,71.86
2018-12-15T15:46:55.903Z,72.37
2018-12-15T15:51:50.574Z,71.83
2018-12-15T15:56:45.233Z,71.88
2018-12-15T16:01:39.963Z,73.10
2018-12-15T16:06:34.634Z,73.41
2018-12-15T16:11:32.610Z,74.62
2018-12-15T16:16:35.527Z,74.11
2018-12-15T16:21:30.469Z,73.56
2018-12-15T16:26:25.398Z,75.18
2018-12-15T16:31:20.298Z,77.20
2018-12-15T16:36:15.740Z,75.96
2018-12-15T16:41:11.082Z,77.61
2018-12-15T16:46:06.056Z,78.38
2018-12-15T16:51:00.682Z,78.75
2018-12-15T16:55:58.508Z,79.05
2018-12-15T17:00:56.303Z,79.53
2018-12-15T17:05:54.193Z,79.16
2018-12-15T17:10:48.782Z,77.84
2018-12-15T17:15:44.169Z,80.60
2018-12-15T17:20:45.850Z,80.03
2018-12-15T17:25:42.531Z,79.84
2018-12-15T17:30:44.992Z,81.29
2018-12-15T17:35:39.687Z,80.63
2018-12-15T17:41:05.249Z,79.75
2018-12-15T17:45:59.886Z,80.46
2018-12-15T17:50:54.497Z,80.52
2018-12-15T18:01:39.042Z,79.77
2018-12-15T18:06:41.245Z,81.08
2018-12-15T18:11:51.069Z,83.71
2018-12-15T18:16:45.864Z,82.33
2018-12-15T18:21:42.980Z,82.23
2018-12-15T18:26:43.643Z,81.30
2018-12-15T18:31:38.485Z,83.81
2018-12-15T18:42:02.802Z,82.14
2018-12-15T18:47:01.039Z,80.94
2018-12-15T18:51:56.026Z,82.07
2018-12-15T18:56:51.228Z,83.23
2018-12-15T19:01:46.026Z,83.03
2018-12-15T19:06:43.677Z,82.58
2018-12-15T19:11:48.376Z,83.07
2018-12-15T19:16:43.788Z,81.64
2018-12-15T19:21:42.240Z,82.30
2018-12-15T19:26:37.460Z,84.06
2018-12-15T19:31:32.149Z,82.41
2018-12-15T19:36:26.893Z,84.39
2018-12-15T19:41:22.615Z,82.93
2018-12-15T19:46:18.345Z,82.49
2018-12-15T19:51:13.047Z,83.72
2018-12-15T19:56:07.996Z,86.00
2018-12-15T20:01:02.904Z,83.34
2018-12-15T20:05:57.722Z,82.89
2018-12-15T20:10:52.664Z,84.97
2018-12-15T20:15:47.437Z,85.37
2018-12-15T20:20:42.410Z,84.03
2018-12-15T20:25:37.300Z,84.84
2018-12-15T20:30:32.096Z,84.53
2018-12-15T20:35:26.845Z,84.76
2018-12-15T20:40:21.543Z,85.15
2018-12-15T20:45:16.251Z,83.89
2018-12-15T20:50:11.145Z,83.82
2018-12-15T20:55:06.315Z,84.74
2018-12-15T21:00:01.393Z,85.33
2018-12-15T21:32:57.137Z,85.52
2018-12-15T23:35:14.821Z,88.49
